sensor_id;sensor_type;location;lat;lon;timestamp;P1;durP1;ratioP1;P2;durP2;ratioP2
17854;SDS011;9053;53.358;6.382;2023-06-10T00:00:55;8.52;;;5.32;;
17854;SDS011;9053;53.358;6.382;2023-06-10T00:03:26;9.68;;;5.50;;
17854;SDS011;9053;53.358;6.382;2023-06-10T00:05:56;10.80;;;5.53;;
17854;SDS011;9053;53.358;6.382;2023-06-10T00:08:26;7.45;;;4.97;;
17854;SDS011;9053;53.358;6.382;2023-06-10T00:11:00;9.40;;;5.65;;
17854;SDS011;9053;53.358;6.382;2023-06-10T00:13:31;7.63;;;5.07;;
17854;SDS011;9053;53.358;6.382;2023-06-10T00:16:01;9.23;;;5.50;;
17854;SDS011;9053;53.358;6.382;2023-06-10T00:18:31;11.40;;;5.53;;
17854;SDS011;9053;53.358;6.382;2023-06-10T00:21:05;7.93;;;5.57;;
17854;SDS011;9053;53.358;6.382;2023-06-10T00:23:35;8.15;;;5.47;;
17854;SDS011;9053;53.358;6.382;2023-06-10T00:26:08;10.57;;;5.95;;
17854;SDS011;9053;53.358;6.382;2023-06-10T00:28:38;12.25;;;6.25;;
17854;SDS011;9053;53.358;6.382;2023-06-10T00:31:08;10.15;;;5.90;;
17854;SDS011;9053;53.358;6.382;2023-06-10T00:33:38;8.18;;;5.50;;
17854;SDS011;9053;53.358;6.382;2023-06-10T00:36:08;8.25;;;5.70;;
17854;SDS011;9053;53.358;6.382;2023-06-10T00:38:40;7.45;;;5.15;;
17854;SDS011;9053;53.358;6.382;2023-06-10T00:41:12;7.43;;;5.25;;
17854;SDS011;9053;53.358;6.382;2023-06-10T00:43:42;8.35;;;5.57;;
17854;SDS011;9053;53.358;6.382;2023-06-10T00:46:14;9.35;;;6.00;;
17854;SDS011;9053;53.358;6.382;2023-06-10T00:48:45;7.47;;;5.78;;
17854;SDS011;9053;53.358;6.382;2023-06-10T00:51:15;8.43;;;6.10;;
17854;SDS011;9053;53.358;6.382;2023-06-10T00:53:46;7.50;;;5.57;;
17854;SDS011;9053;53.358;6.382;2023-06-10T00:56:19;7.38;;;5.60;;
17854;SDS011;9053;53.358;6.382;2023-06-10T00:58:49;9.35;;;5.82;;
17854;SDS011;9053;53.358;6.382;2023-06-10T01:01:20;8.93;;;6.05;;
17854;SDS011;9053;53.358;6.382;2023-06-10T01:03:50;9.23;;;5.65;;
17854;SDS011;9053;53.358;6.382;2023-06-10T01:06:23;7.88;;;6.30;;
17854;SDS011;9053;53.358;6.382;2023-06-10T01:09:06;8.52;;;5.47;;
17854;SDS011;9053;53.358;6.382;2023-06-10T01:11:47;7.40;;;5.22;;
17854;SDS011;9053;53.358;6.382;2023-06-10T01:14:21;8.75;;;5.53;;
17854;SDS011;9053;53.358;6.382;2023-06-10T01:16:52;7.30;;;4.88;;
17854;SDS011;9053;53.358;6.382;2023-06-10T01:19:23;8.70;;;5.40;;
17854;SDS011;9053;53.358;6.382;2023-06-10T01:21:55;7.95;;;5.13;;
17854;SDS011;9053;53.358;6.382;2023-06-10T01:24:27;8.20;;;5.50;;
17854;SDS011;9053;53.358;6.382;2023-06-10T01:26:59;8.38;;;5.07;;
17854;SDS011;9053;53.358;6.382;2023-06-10T01:29:37;7.90;;;5.15;;
17854;SDS011;9053;53.358;6.382;2023-06-10T01:32:12;7.10;;;4.63;;
17854;SDS011;9053;53.358;6.382;2023-06-10T01:34:46;9.60;;;5.32;;
17854;SDS011;9053;53.358;6.382;2023-06-10T01:37:22;8.50;;;5.00;;
17854;SDS011;9053;53.358;6.382;2023-06-10T01:39:56;7.45;;;4.18;;
17854;SDS011;9053;53.358;6.382;2023-06-10T01:42:27;6.53;;;4.60;;
17854;SDS011;9053;53.358;6.382;2023-06-10T01:44:58;9.43;;;4.90;;
17854;SDS011;9053;53.358;6.382;2023-06-10T01:47:30;7.97;;;4.43;;
17854;SDS011;9053;53.358;6.382;2023-06-10T01:50:00;7.32;;;5.13;;
17854;SDS011;9053;53.358;6.382;2023-06-10T01:52:32;8.23;;;5.03;;
17854;SDS011;9053;53.358;6.382;2023-06-10T01:55:03;7.70;;;4.20;;
17854;SDS011;9053;53.358;6.382;2023-06-10T01:57:34;6.07;;;4.25;;
17854;SDS011;9053;53.358;6.382;2023-06-10T02:00:05;6.43;;;4.40;;
17854;SDS011;9053;53.358;6.382;2023-06-10T02:02:36;7.47;;;4.90;;
17854;SDS011;9053;53.358;6.382;2023-06-10T02:05:06;9.13;;;4.63;;
17854;SDS011;9053;53.358;6.382;2023-06-10T02:07:39;7.68;;;4.97;;
17854;SDS011;9053;53.358;6.382;2023-06-10T02:10:10;7.15;;;4.63;;
17854;SDS011;9053;53.358;6.382;2023-06-10T02:12:40;7.70;;;4.78;;
17854;SDS011;9053;53.358;6.382;2023-06-10T02:15:10;8.25;;;4.97;;
17854;SDS011;9053;53.358;6.382;2023-06-10T02:17:40;8.88;;;5.07;;
17854;SDS011;9053;53.358;6.382;2023-06-10T02:20:13;7.57;;;4.53;;
17854;SDS011;9053;53.358;6.382;2023-06-10T02:22:45;8.30;;;4.43;;
17854;SDS011;9053;53.358;6.382;2023-06-10T02:25:15;8.13;;;5.07;;
17854;SDS011;9053;53.358;6.382;2023-06-10T02:27:45;8.80;;;5.28;;
17854;SDS011;9053;53.358;6.382;2023-06-10T02:30:15;9.35;;;5.25;;
17854;SDS011;9053;53.358;6.382;2023-06-10T02:32:46;8.27;;;5.45;;
17854;SDS011;9053;53.358;6.382;2023-06-10T02:35:17;8.63;;;4.85;;
17854;SDS011;9053;53.358;6.382;2023-06-10T02:37:50;10.48;;;5.38;;
17854;SDS011;9053;53.358;6.382;2023-06-10T02:40:20;10.03;;;5.30;;
17854;SDS011;9053;53.358;6.382;2023-06-10T02:42:50;9.40;;;5.50;;
17854;SDS011;9053;53.358;6.382;2023-06-10T02:45:20;9.88;;;5.43;;
17854;SDS011;9053;53.358;6.382;2023-06-10T02:47:50;9.20;;;5.47;;
17854;SDS011;9053;53.358;6.382;2023-06-10T02:50:20;9.05;;;5.40;;
17854;SDS011;9053;53.358;6.382;2023-06-10T02:52:53;8.32;;;5.45;;
17854;SDS011;9053;53.358;6.382;2023-06-10T02:55:23;11.25;;;6.15;;
17854;SDS011;9053;53.358;6.382;2023-06-10T02:57:53;10.32;;;6.03;;
17854;SDS011;9053;53.358;6.382;2023-06-10T03:00:23;11.20;;;5.75;;
17854;SDS011;9053;53.358;6.382;2023-06-10T03:02:53;9.25;;;5.75;;
17854;SDS011;9053;53.358;6.382;2023-06-10T03:05:24;8.98;;;5.82;;
17854;SDS011;9053;53.358;6.382;2023-06-10T03:07:56;11.65;;;6.28;;
17854;SDS011;9053;53.358;6.382;2023-06-10T03:10:26;8.40;;;5.90;;
17854;SDS011;9053;53.358;6.382;2023-06-10T03:12:56;9.32;;;5.90;;
17854;SDS011;9053;53.358;6.382;2023-06-10T03:15:26;10.90;;;6.05;;
17854;SDS011;9053;53.358;6.382;2023-06-10T03:17:59;12.77;;;7.57;;
17854;SDS011;9053;53.358;6.382;2023-06-10T03:20:29;10.68;;;6.20;;
17854;SDS011;9053;53.358;6.382;2023-06-10T03:23:06;12.82;;;6.30;;
17854;SDS011;9053;53.358;6.382;2023-06-10T03:25:41;11.30;;;6.10;;
17854;SDS011;9053;53.358;6.382;2023-06-10T03:28:12;9.02;;;6.00;;
17854;SDS011;9053;53.358;6.382;2023-06-10T03:30:43;11.73;;;6.55;;
17854;SDS011;9053;53.358;6.382;2023-06-10T03:33:13;13.07;;;6.10;;
17854;SDS011;9053;53.358;6.382;2023-06-10T03:35:43;12.02;;;7.00;;
17854;SDS011;9053;53.358;6.382;2023-06-10T03:38:17;11.30;;;6.70;;
17854;SDS011;9053;53.358;6.382;2023-06-10T03:40:49;12.00;;;6.77;;
17854;SDS011;9053;53.358;6.382;2023-06-10T03:43:18;11.67;;;7.07;;
17854;SDS011;9053;53.358;6.382;2023-06-10T03:45:48;16.77;;;7.67;;
17854;SDS011;9053;53.358;6.382;2023-06-10T03:48:19;11.23;;;6.35;;
17854;SDS011;9053;53.358;6.382;2023-06-10T03:50:48;13.15;;;6.88;;
17854;SDS011;9053;53.358;6.382;2023-06-10T03:53:21;11.47;;;6.77;;
17854;SDS011;9053;53.358;6.382;2023-06-10T03:55:51;11.97;;;7.07;;
17854;SDS011;9053;53.358;6.382;2023-06-10T03:58:24;10.97;;;6.20;;
17854;SDS011;9053;53.358;6.382;2023-06-10T04:00:53;15.13;;;7.73;;
17854;SDS011;9053;53.358;6.382;2023-06-10T04:03:23;9.27;;;6.40;;
17854;SDS011;9053;53.358;6.382;2023-06-10T04:05:54;12.77;;;7.00;;
17854;SDS011;9053;53.358;6.382;2023-06-10T04:08:27;13.37;;;7.13;;
17854;SDS011;9053;53.358;6.382;2023-06-10T04:10:57;11.70;;;6.93;;
17854;SDS011;9053;53.358;6.382;2023-06-10T04:13:27;12.47;;;6.93;;
17854;SDS011;9053;53.358;6.382;2023-06-10T04:15:57;12.63;;;7.18;;
17854;SDS011;9053;53.358;6.382;2023-06-10T04:18:27;11.95;;;6.32;;
17854;SDS011;9053;53.358;6.382;2023-06-10T04:20:57;13.07;;;7.18;;
17854;SDS011;9053;53.358;6.382;2023-06-10T04:23:30;13.00;;;6.65;;
17854;SDS011;9053;53.358;6.382;2023-06-10T04:26:00;11.38;;;7.15;;
17854;SDS011;9053;53.358;6.382;2023-06-10T04:28:32;12.82;;;6.63;;
17854;SDS011;9053;53.358;6.382;2023-06-10T04:31:02;13.18;;;6.95;;
17854;SDS011;9053;53.358;6.382;2023-06-10T04:33:32;11.55;;;6.20;;
17854;SDS011;9053;53.358;6.382;2023-06-10T04:36:03;11.10;;;6.50;;
17854;SDS011;9053;53.358;6.382;2023-06-10T04:38:37;10.55;;;6.22;;
17854;SDS011;9053;53.358;6.382;2023-06-10T04:41:07;13.70;;;6.90;;
17854;SDS011;9053;53.358;6.382;2023-06-10T04:43:37;9.48;;;5.78;;
17854;SDS011;9053;53.358;6.382;2023-06-10T04:46:07;14.43;;;6.57;;
17854;SDS011;9053;53.358;6.382;2023-06-10T04:48:37;10.13;;;6.43;;
17854;SDS011;9053;53.358;6.382;2023-06-10T04:51:09;9.70;;;5.75;;
17854;SDS011;9053;53.358;6.382;2023-06-10T04:53:42;11.35;;;5.78;;
17854;SDS011;9053;53.358;6.382;2023-06-10T04:56:12;9.93;;;5.32;;
17854;SDS011;9053;53.358;6.382;2023-06-10T04:58:42;10.18;;;6.05;;
17854;SDS011;9053;53.358;6.382;2023-06-10T05:01:14;12.48;;;5.60;;
17854;SDS011;9053;53.358;6.382;2023-06-10T05:03:44;11.32;;;5.70;;
17854;SDS011;9053;53.358;6.382;2023-06-10T05:06:14;10.63;;;5.60;;
17854;SDS011;9053;53.358;6.382;2023-06-10T05:08:46;9.15;;;5.07;;
17854;SDS011;9053;53.358;6.382;2023-06-10T05:11:16;9.35;;;4.80;;
17854;SDS011;9053;53.358;6.382;2023-06-10T05:13:46;9.80;;;5.47;;
17854;SDS011;9053;53.358;6.382;2023-06-10T05:16:16;9.82;;;5.25;;
17854;SDS011;9053;53.358;6.382;2023-06-10T05:18:47;10.60;;;5.47;;
17854;SDS011;9053;53.358;6.382;2023-06-10T05:21:18;12.30;;;6.07;;
17854;SDS011;9053;53.358;6.382;2023-06-10T05:23:52;9.32;;;5.90;;
17854;SDS011;9053;53.358;6.382;2023-06-10T05:26:22;10.93;;;5.75;;
17854;SDS011;9053;53.358;6.382;2023-06-10T05:28:52;10.50;;;5.78;;
17854;SDS011;9053;53.358;6.382;2023-06-10T05:31:22;7.43;;;4.97;;
17854;SDS011;9053;53.358;6.382;2023-06-10T05:33:52;8.07;;;5.43;;
17854;SDS011;9053;53.358;6.382;2023-06-10T05:36:23;12.00;;;5.78;;
17854;SDS011;9053;53.358;6.382;2023-06-10T05:38:56;9.93;;;5.40;;
17854;SDS011;9053;53.358;6.382;2023-06-10T05:41:26;10.88;;;5.68;;
17854;SDS011;9053;53.358;6.382;2023-06-10T05:43:57;9.95;;;5.57;;
17854;SDS011;9053;53.358;6.382;2023-06-10T05:46:26;11.88;;;5.43;;
17854;SDS011;9053;53.358;6.382;2023-06-10T05:48:56;9.00;;;5.70;;
17854;SDS011;9053;53.358;6.382;2023-06-10T05:51:28;10.10;;;5.82;;
17854;SDS011;9053;53.358;6.382;2023-06-10T05:54:00;10.82;;;5.55;;
17854;SDS011;9053;53.358;6.382;2023-06-10T05:56:30;9.02;;;5.40;;
17854;SDS011;9053;53.358;6.382;2023-06-10T05:59:00;8.77;;;5.40;;
17854;SDS011;9053;53.358;6.382;2023-06-10T06:01:30;9.48;;;5.47;;
17854;SDS011;9053;53.358;6.382;2023-06-10T06:04:00;8.57;;;5.20;;
17854;SDS011;9053;53.358;6.382;2023-06-10T06:06:30;8.75;;;5.32;;
17854;SDS011;9053;53.358;6.382;2023-06-10T06:09:03;9.32;;;5.68;;
17854;SDS011;9053;53.358;6.382;2023-06-10T06:11:33;11.18;;;6.03;;
17854;SDS011;9053;53.358;6.382;2023-06-10T06:14:03;8.30;;;4.82;;
17854;SDS011;9053;53.358;6.382;2023-06-10T06:16:33;7.70;;;4.88;;
17854;SDS011;9053;53.358;6.382;2023-06-10T06:19:03;11.70;;;5.88;;
17854;SDS011;9053;53.358;6.382;2023-06-10T06:21:33;8.43;;;5.15;;
17854;SDS011;9053;53.358;6.382;2023-06-10T06:24:06;8.13;;;5.07;;
17854;SDS011;9053;53.358;6.382;2023-06-10T06:26:36;8.40;;;4.80;;
17854;SDS011;9053;53.358;6.382;2023-06-10T06:29:06;6.95;;;5.13;;
17854;SDS011;9053;53.358;6.382;2023-06-10T06:31:36;6.90;;;4.72;;
17854;SDS011;9053;53.358;6.382;2023-06-10T06:34:07;6.95;;;4.75;;
17854;SDS011;9053;53.358;6.382;2023-06-10T06:36:42;10.32;;;5.15;;
17854;SDS011;9053;53.358;6.382;2023-06-10T06:39:16;8.07;;;5.60;;
17854;SDS011;9053;53.358;6.382;2023-06-10T06:41:46;6.95;;;4.47;;
17854;SDS011;9053;53.358;6.382;2023-06-10T06:44:16;9.98;;;5.30;;
17854;SDS011;9053;53.358;6.382;2023-06-10T06:46:46;8.63;;;5.50;;
17854;SDS011;9053;53.358;6.382;2023-06-10T06:49:16;10.75;;;5.55;;
17854;SDS011;9053;53.358;6.382;2023-06-10T06:51:47;7.60;;;4.70;;
17854;SDS011;9053;53.358;6.382;2023-06-10T06:54:20;9.95;;;5.43;;
17854;SDS011;9053;53.358;6.382;2023-06-10T06:56:50;11.80;;;5.80;;
17854;SDS011;9053;53.358;6.382;2023-06-10T06:59:20;8.88;;;5.45;;
17854;SDS011;9053;53.358;6.382;2023-06-10T07:01:50;8.57;;;5.13;;
17854;SDS011;9053;53.358;6.382;2023-06-10T07:04:20;10.32;;;5.50;;
17854;SDS011;9053;53.358;6.382;2023-06-10T07:06:52;8.18;;;4.82;;
17854;SDS011;9053;53.358;6.382;2023-06-10T07:09:24;8.63;;;5.05;;
17854;SDS011;9053;53.358;6.382;2023-06-10T07:11:54;7.40;;;4.60;;
17854;SDS011;9053;53.358;6.382;2023-06-10T07:14:24;7.97;;;4.88;;
17854;SDS011;9053;53.358;6.382;2023-06-10T07:16:57;7.63;;;4.82;;
17854;SDS011;9053;53.358;6.382;2023-06-10T07:19:27;12.07;;;5.20;;
17854;SDS011;9053;53.358;6.382;2023-06-10T07:21:57;6.88;;;4.57;;
17854;SDS011;9053;53.358;6.382;2023-06-10T07:24:29;10.20;;;5.45;;
17854;SDS011;9053;53.358;6.382;2023-06-10T07:26:59;9.68;;;4.63;;
17854;SDS011;9053;53.358;6.382;2023-06-10T07:29:29;6.90;;;4.57;;
17854;SDS011;9053;53.358;6.382;2023-06-10T07:32:00;5.97;;;4.18;;
17854;SDS011;9053;53.358;6.382;2023-06-10T07:34:30;6.60;;;4.13;;
17854;SDS011;9053;53.358;6.382;2023-06-10T07:37:00;7.28;;;4.65;;
17854;SDS011;9053;53.358;6.382;2023-06-10T07:39:34;8.88;;;4.65;;
17854;SDS011;9053;53.358;6.382;2023-06-10T07:42:05;7.07;;;4.53;;
17854;SDS011;9053;53.358;6.382;2023-06-10T07:44:35;5.72;;;4.63;;
17854;SDS011;9053;53.358;6.382;2023-06-10T07:47:06;8.85;;;4.97;;
17854;SDS011;9053;53.358;6.382;2023-06-10T07:49:35;7.45;;;4.28;;
17854;SDS011;9053;53.358;6.382;2023-06-10T07:52:06;7.72;;;5.40;;
17854;SDS011;9053;53.358;6.382;2023-06-10T07:54:39;7.75;;;4.60;;
17854;SDS011;9053;53.358;6.382;2023-06-10T07:57:09;7.80;;;4.88;;
17854;SDS011;9053;53.358;6.382;2023-06-10T07:59:39;6.70;;;4.25;;
17854;SDS011;9053;53.358;6.382;2023-06-10T08:02:13;9.32;;;4.28;;
17854;SDS011;9053;53.358;6.382;2023-06-10T08:04:43;7.60;;;4.05;;
17854;SDS011;9053;53.358;6.382;2023-06-10T08:07:15;7.95;;;4.75;;
17854;SDS011;9053;53.358;6.382;2023-06-10T08:09:48;6.95;;;4.25;;
17854;SDS011;9053;53.358;6.382;2023-06-10T08:12:18;10.80;;;4.95;;
17854;SDS011;9053;53.358;6.382;2023-06-10T08:14:48;8.23;;;4.75;;
17854;SDS011;9053;53.358;6.382;2023-06-10T08:17:17;7.70;;;4.50;;
17854;SDS011;9053;53.358;6.382;2023-06-10T08:19:47;7.22;;;4.70;;
17854;SDS011;9053;53.358;6.382;2023-06-10T08:22:17;7.32;;;4.25;;
17854;SDS011;9053;53.358;6.382;2023-06-10T08:24:50;8.60;;;4.55;;
17854;SDS011;9053;53.358;6.382;2023-06-10T08:27:21;7.20;;;4.55;;
17854;SDS011;9053;53.358;6.382;2023-06-10T08:29:53;7.72;;;4.50;;
17854;SDS011;9053;53.358;6.382;2023-06-10T08:32:27;7.20;;;4.82;;
17854;SDS011;9053;53.358;6.382;2023-06-10T08:34:57;9.85;;;4.50;;
17854;SDS011;9053;53.358;6.382;2023-06-10T08:37:27;6.60;;;4.50;;
17854;SDS011;9053;53.358;6.382;2023-06-10T08:40:00;8.45;;;4.55;;
17854;SDS011;9053;53.358;6.382;2023-06-10T08:42:32;5.07;;;4.30;;
17854;SDS011;9053;53.358;6.382;2023-06-10T08:45:05;9.00;;;4.50;;
17854;SDS011;9053;53.358;6.382;2023-06-10T08:47:42;6.07;;;3.80;;
17854;SDS011;9053;53.358;6.382;2023-06-10T08:50:15;6.70;;;4.47;;
17854;SDS011;9053;53.358;6.382;2023-06-10T08:52:46;6.75;;;4.22;;
17854;SDS011;9053;53.358;6.382;2023-06-10T08:55:26;5.88;;;4.32;;
17854;SDS011;9053;53.358;6.382;2023-06-10T08:57:59;6.05;;;4.30;;
17854;SDS011;9053;53.358;6.382;2023-06-10T09:00:35;5.57;;;3.75;;
17854;SDS011;9053;53.358;6.382;2023-06-10T09:03:07;8.20;;;4.50;;
17854;SDS011;9053;53.358;6.382;2023-06-10T09:05:38;5.20;;;4.00;;
17854;SDS011;9053;53.358;6.382;2023-06-10T09:08:08;7.10;;;3.85;;
17854;SDS011;9053;53.358;6.382;2023-06-10T09:10:41;5.28;;;3.58;;
17854;SDS011;9053;53.358;6.382;2023-06-10T09:13:10;7.30;;;4.07;;
17854;SDS011;9053;53.358;6.382;2023-06-10T09:15:42;7.22;;;4.57;;
17854;SDS011;9053;53.358;6.382;2023-06-10T09:18:12;5.95;;;3.78;;
17854;SDS011;9053;53.358;6.382;2023-06-10T09:20:42;7.05;;;3.88;;
17854;SDS011;9053;53.358;6.382;2023-06-10T09:23:13;8.25;;;4.50;;
17854;SDS011;9053;53.358;6.382;2023-06-10T09:25:53;8.00;;;4.30;;
17854;SDS011;9053;53.358;6.382;2023-06-10T09:28:25;6.75;;;3.60;;
17854;SDS011;9053;53.358;6.382;2023-06-10T09:31:04;5.90;;;3.42;;
17854;SDS011;9053;53.358;6.382;2023-06-10T09:33:37;5.93;;;3.92;;
17854;SDS011;9053;53.358;6.382;2023-06-10T09:36:08;7.25;;;4.40;;
17854;SDS011;9053;53.358;6.382;2023-06-10T09:38:39;7.53;;;4.00;;
17854;SDS011;9053;53.358;6.382;2023-06-10T09:41:11;5.25;;;4.05;;
17854;SDS011;9053;53.358;6.382;2023-06-10T09:43:45;7.00;;;4.18;;
17854;SDS011;9053;53.358;6.382;2023-06-10T09:46:15;7.65;;;3.85;;
17854;SDS011;9053;53.358;6.382;2023-06-10T09:48:47;5.75;;;3.58;;
17854;SDS011;9053;53.358;6.382;2023-06-10T09:51:17;6.18;;;3.70;;
17854;SDS011;9053;53.358;6.382;2023-06-10T09:53:48;6.22;;;3.88;;
17854;SDS011;9053;53.358;6.382;2023-06-10T09:56:22;5.78;;;4.28;;
17854;SDS011;9053;53.358;6.382;2023-06-10T09:59:02;5.43;;;3.60;;
17854;SDS011;9053;53.358;6.382;2023-06-10T10:01:33;8.05;;;4.10;;
17854;SDS011;9053;53.358;6.382;2023-06-10T10:04:04;8.13;;;3.65;;
17854;SDS011;9053;53.358;6.382;2023-06-10T10:06:34;5.93;;;3.95;;
17854;SDS011;9053;53.358;6.382;2023-06-10T10:09:04;6.53;;;3.88;;
17854;SDS011;9053;53.358;6.382;2023-06-10T10:11:38;6.18;;;4.10;;
17854;SDS011;9053;53.358;6.382;2023-06-10T10:14:09;7.57;;;4.05;;
17854;SDS011;9053;53.358;6.382;2023-06-10T10:16:41;6.15;;;3.80;;
17854;SDS011;9053;53.358;6.382;2023-06-10T10:19:13;6.35;;;4.50;;
17854;SDS011;9053;53.358;6.382;2023-06-10T10:21:50;6.15;;;4.53;;
17854;SDS011;9053;53.358;6.382;2023-06-10T10:24:26;7.32;;;4.18;;
17854;SDS011;9053;53.358;6.382;2023-06-10T10:27:07;6.63;;;4.38;;
17854;SDS011;9053;53.358;6.382;2023-06-10T10:29:44;7.00;;;4.57;;
17854;SDS011;9053;53.358;6.382;2023-06-10T10:32:21;6.50;;;4.30;;
17854;SDS011;9053;53.358;6.382;2023-06-10T10:34:58;8.02;;;4.68;;
17854;SDS011;9053;53.358;6.382;2023-06-10T10:37:38;7.90;;;4.90;;
17854;SDS011;9053;53.358;6.382;2023-06-10T10:40:09;10.70;;;5.43;;
17854;SDS011;9053;53.358;6.382;2023-06-10T10:42:44;8.95;;;4.80;;
17854;SDS011;9053;53.358;6.382;2023-06-10T10:45:14;7.78;;;4.60;;
17854;SDS011;9053;53.358;6.382;2023-06-10T10:47:45;7.15;;;4.40;;
17854;SDS011;9053;53.358;6.382;2023-06-10T10:50:16;7.18;;;5.00;;
17854;SDS011;9053;53.358;6.382;2023-06-10T10:52:51;8.43;;;5.00;;
17854;SDS011;9053;53.358;6.382;2023-06-10T10:55:23;7.85;;;5.10;;
17854;SDS011;9053;53.358;6.382;2023-06-10T10:57:58;9.15;;;6.10;;
17854;SDS011;9053;53.358;6.382;2023-06-10T11:00:29;8.25;;;5.40;;
17854;SDS011;9053;53.358;6.382;2023-06-10T11:03:03;10.20;;;5.97;;
17854;SDS011;9053;53.358;6.382;2023-06-10T11:05:38;11.45;;;7.13;;
17854;SDS011;9053;53.358;6.382;2023-06-10T11:08:11;8.52;;;5.35;;
17854;SDS011;9053;53.358;6.382;2023-06-10T11:10:42;8.65;;;6.07;;
17854;SDS011;9053;53.358;6.382;2023-06-10T11:13:23;10.73;;;6.60;;
17854;SDS011;9053;53.358;6.382;2023-06-10T11:15:56;9.40;;;6.57;;
17854;SDS011;9053;53.358;6.382;2023-06-10T11:18:27;9.00;;;6.28;;
17854;SDS011;9053;53.358;6.382;2023-06-10T11:21:00;9.65;;;6.03;;
17854;SDS011;9053;53.358;6.382;2023-06-10T11:23:33;9.82;;;6.20;;
17854;SDS011;9053;53.358;6.382;2023-06-10T11:26:17;6.60;;;5.75;;
17854;SDS011;9053;53.358;6.382;2023-06-10T11:29:11;10.27;;;6.10;;
17854;SDS011;9053;53.358;6.382;2023-06-10T11:31:45;7.07;;;6.38;;
17854;SDS011;9053;53.358;6.382;2023-06-10T11:34:22;10.85;;;6.30;;
17854;SDS011;9053;53.358;6.382;2023-06-10T11:36:55;9.10;;;5.95;;
17854;SDS011;9053;53.358;6.382;2023-06-10T11:39:26;9.07;;;5.88;;
17854;SDS011;9053;53.358;6.382;2023-06-10T11:41:57;11.80;;;5.60;;
17854;SDS011;9053;53.358;6.382;2023-06-10T11:44:30;9.18;;;6.90;;
17854;SDS011;9053;53.358;6.382;2023-06-10T11:47:05;11.25;;;6.53;;
17854;SDS011;9053;53.358;6.382;2023-06-10T11:49:35;11.40;;;7.47;;
17854;SDS011;9053;53.358;6.382;2023-06-10T11:52:06;10.27;;;6.88;;
17854;SDS011;9053;53.358;6.382;2023-06-10T11:54:37;12.57;;;6.50;;
17854;SDS011;9053;53.358;6.382;2023-06-10T11:57:07;9.43;;;6.15;;
17854;SDS011;9053;53.358;6.382;2023-06-10T11:59:40;9.32;;;6.80;;
17854;SDS011;9053;53.358;6.382;2023-06-10T12:02:14;8.85;;;6.50;;
17854;SDS011;9053;53.358;6.382;2023-06-10T12:04:45;9.25;;;6.35;;
17854;SDS011;9053;53.358;6.382;2023-06-10T12:07:19;8.98;;;6.60;;
17854;SDS011;9053;53.358;6.382;2023-06-10T12:09:58;13.30;;;6.93;;
17854;SDS011;9053;53.358;6.382;2023-06-10T12:12:48;10.52;;;6.40;;
17854;SDS011;9053;53.358;6.382;2023-06-10T12:15:25;6.63;;;5.97;;
17854;SDS011;9053;53.358;6.382;2023-06-10T12:17:55;8.63;;;5.90;;
17854;SDS011;9053;53.358;6.382;2023-06-10T12:20:29;11.27;;;6.63;;
17854;SDS011;9053;53.358;6.382;2023-06-10T12:23:07;7.65;;;5.28;;
17854;SDS011;9053;53.358;6.382;2023-06-10T12:25:38;10.02;;;5.78;;
17854;SDS011;9053;53.358;6.382;2023-06-10T12:28:09;12.05;;;5.75;;
17854;SDS011;9053;53.358;6.382;2023-06-10T12:30:44;9.95;;;5.28;;
17854;SDS011;9053;53.358;6.382;2023-06-10T12:33:17;8.93;;;4.68;;
17854;SDS011;9053;53.358;6.382;2023-06-10T12:35:48;9.68;;;5.07;;
17854;SDS011;9053;53.358;6.382;2023-06-10T12:38:23;10.00;;;4.95;;
17854;SDS011;9053;53.358;6.382;2023-06-10T12:40:54;9.48;;;4.80;;
17854;SDS011;9053;53.358;6.382;2023-06-10T12:43:31;10.85;;;4.60;;
17854;SDS011;9053;53.358;6.382;2023-06-10T12:46:10;10.20;;;4.75;;
17854;SDS011;9053;53.358;6.382;2023-06-10T12:48:49;8.25;;;4.30;;
17854;SDS011;9053;53.358;6.382;2023-06-10T12:51:21;7.90;;;5.20;;
17854;SDS011;9053;53.358;6.382;2023-06-10T12:53:52;9.05;;;4.90;;
17854;SDS011;9053;53.358;6.382;2023-06-10T12:56:22;9.05;;;4.47;;
17854;SDS011;9053;53.358;6.382;2023-06-10T12:58:51;10.27;;;4.78;;
17854;SDS011;9053;53.358;6.382;2023-06-10T13:01:24;9.75;;;4.30;;
17854;SDS011;9053;53.358;6.382;2023-06-10T13:03:54;7.63;;;4.57;;
17854;SDS011;9053;53.358;6.382;2023-06-10T13:06:26;7.18;;;4.22;;
17854;SDS011;9053;53.358;6.382;2023-06-10T13:08:56;8.95;;;4.00;;
17854;SDS011;9053;53.358;6.382;2023-06-10T13:11:27;12.40;;;4.50;;
17854;SDS011;9053;53.358;6.382;2023-06-10T13:13:57;9.32;;;3.90;;
17854;SDS011;9053;53.358;6.382;2023-06-10T13:16:30;10.77;;;3.90;;
17854;SDS011;9053;53.358;6.382;2023-06-10T13:19:00;10.98;;;4.15;;
17854;SDS011;9053;53.358;6.382;2023-06-10T13:21:32;9.20;;;3.70;;
17854;SDS011;9053;53.358;6.382;2023-06-10T13:24:05;6.85;;;3.33;;
17854;SDS011;9053;53.358;6.382;2023-06-10T13:26:35;7.80;;;3.97;;
17854;SDS011;9053;53.358;6.382;2023-06-10T13:29:05;10.70;;;4.25;;
17854;SDS011;9053;53.358;6.382;2023-06-10T13:31:43;10.85;;;5.15;;
17854;SDS011;9053;53.358;6.382;2023-06-10T13:34:13;7.78;;;4.00;;
17854;SDS011;9053;53.358;6.382;2023-06-10T13:36:43;9.43;;;3.83;;
17854;SDS011;9053;53.358;6.382;2023-06-10T13:39:13;7.43;;;3.72;;
17854;SDS011;9053;53.358;6.382;2023-06-10T13:41:43;5.15;;;3.20;;
17854;SDS011;9053;53.358;6.382;2023-06-10T13:44:13;10.00;;;3.50;;
17854;SDS011;9053;53.358;6.382;2023-06-10T13:46:45;10.32;;;3.75;;
17854;SDS011;9053;53.358;6.382;2023-06-10T13:49:15;7.55;;;4.00;;
17854;SDS011;9053;53.358;6.382;2023-06-10T13:51:46;8.75;;;4.20;;
17854;SDS011;9053;53.358;6.382;2023-06-10T13:54:16;10.48;;;4.53;;
17854;SDS011;9053;53.358;6.382;2023-06-10T13:56:47;10.23;;;4.10;;
17854;SDS011;9053;53.358;6.382;2023-06-10T13:59:18;7.57;;;3.70;;
17854;SDS011;9053;53.358;6.382;2023-06-10T14:01:51;10.23;;;4.20;;
17854;SDS011;9053;53.358;6.382;2023-06-10T14:04:22;8.20;;;3.88;;
17854;SDS011;9053;53.358;6.382;2023-06-10T14:06:52;9.70;;;3.72;;
17854;SDS011;9053;53.358;6.382;2023-06-10T14:09:22;10.55;;;4.20;;
17854;SDS011;9053;53.358;6.382;2023-06-10T14:11:52;9.00;;;4.10;;
17854;SDS011;9053;53.358;6.382;2023-06-10T14:14:22;8.55;;;4.20;;
17854;SDS011;9053;53.358;6.382;2023-06-10T14:16:54;8.93;;;4.43;;
17854;SDS011;9053;53.358;6.382;2023-06-10T14:19:24;9.18;;;4.10;;
17854;SDS011;9053;53.358;6.382;2023-06-10T14:21:54;7.07;;;3.88;;
17854;SDS011;9053;53.358;6.382;2023-06-10T14:24:24;7.65;;;3.72;;
17854;SDS011;9053;53.358;6.382;2023-06-10T14:26:54;7.65;;;3.97;;
17854;SDS011;9053;53.358;6.382;2023-06-10T14:29:25;8.65;;;3.65;;
17854;SDS011;9053;53.358;6.382;2023-06-10T14:31:58;9.07;;;3.90;;
17854;SDS011;9053;53.358;6.382;2023-06-10T14:34:31;7.93;;;4.07;;
17854;SDS011;9053;53.358;6.382;2023-06-10T14:37:07;8.60;;;3.47;;
17854;SDS011;9053;53.358;6.382;2023-06-10T14:39:37;7.97;;;3.53;;
17854;SDS011;9053;53.358;6.382;2023-06-10T14:42:07;9.60;;;4.32;;
17854;SDS011;9053;53.358;6.382;2023-06-10T14:44:38;10.15;;;4.28;;
17854;SDS011;9053;53.358;6.382;2023-06-10T14:47:10;7.80;;;3.40;;
17854;SDS011;9053;53.358;6.382;2023-06-10T14:49:40;7.90;;;3.92;;
17854;SDS011;9053;53.358;6.382;2023-06-10T14:52:11;7.78;;;3.40;;
17854;SDS011;9053;53.358;6.382;2023-06-10T14:54:41;7.95;;;3.55;;
17854;SDS011;9053;53.358;6.382;2023-06-10T14:57:11;10.80;;;3.83;;
17854;SDS011;9053;53.358;6.382;2023-06-10T14:59:41;8.77;;;3.80;;
17854;SDS011;9053;53.358;6.382;2023-06-10T15:02:13;10.18;;;3.75;;
17854;SDS011;9053;53.358;6.382;2023-06-10T15:04:43;9.00;;;3.83;;
17854;SDS011;9053;53.358;6.382;2023-06-10T15:07:13;6.90;;;3.25;;
17854;SDS011;9053;53.358;6.382;2023-06-10T15:09:44;7.78;;;3.65;;
17854;SDS011;9053;53.358;6.382;2023-06-10T15:12:14;7.47;;;3.72;;
17854;SDS011;9053;53.358;6.382;2023-06-10T15:14:44;5.82;;;3.38;;
17854;SDS011;9053;53.358;6.382;2023-06-10T15:17:17;10.02;;;3.60;;
17854;SDS011;9053;53.358;6.382;2023-06-10T15:19:47;11.48;;;4.35;;
17854;SDS011;9053;53.358;6.382;2023-06-10T15:22:17;9.35;;;4.00;;
17854;SDS011;9053;53.358;6.382;2023-06-10T15:24:47;5.60;;;3.72;;